createdAt,value
2018-12-31T00:01:05.642Z,16.67
2018-12-31T00:03:38.079Z,11.90
2018-12-31T00:06:10.244Z,14.27
2018-12-31T00:08:42.566Z,14.33
2018-12-31T00:11:14.723Z,17.10
2018-12-31T00:13:46.945Z,12.37
2018-12-31T00:16:19.208Z,18.30
2018-12-31T00:18:51.427Z,17.57
2018-12-31T00:21:23.585Z,17.50
2018-12-31T00:23:55.795Z,16.03
2018-12-31T00:26:28.103Z,21.10
2018-12-31T00:29:00.472Z,23.50
2018-12-31T00:31:32.890Z,19.37
2018-12-31T00:34:05.352Z,21.40
2018-12-31T00:36:37.682Z,21.13
2018-12-31T00:39:10.316Z,19.13
2018-12-31T00:41:42.713Z,14.10
2018-12-31T00:44:15.061Z,20.00
2018-12-31T00:46:47.358Z,19.30
2018-12-31T00:49:19.564Z,17.27
2018-12-31T00:51:51.856Z,19.07
2018-12-31T00:54:24.102Z,15.53
2018-12-31T00:56:56.407Z,15.63
2018-12-31T00:59:28.726Z,16.63
2018-12-31T01:02:00.899Z,19.87
2018-12-31T01:04:33.105Z,11.30
2018-12-31T01:07:05.476Z,18.43
2018-12-31T01:09:37.694Z,17.73
2018-12-31T01:12:10.094Z,22.30
2018-12-31T01:14:42.330Z,14.13
2018-12-31T01:17:14.625Z,19.97
2018-12-31T01:19:46.854Z,16.20
2018-12-31T01:22:19.025Z,15.23
2018-12-31T01:24:51.370Z,25.43
2018-12-31T01:27:23.567Z,20.00
2018-12-31T01:29:55.788Z,16.13
2018-12-31T01:32:27.961Z,19.60
2018-12-31T01:35:00.250Z,16.63
2018-12-31T01:37:32.552Z,24.47
2018-12-31T01:40:05.241Z,17.27
2018-12-31T01:42:37.569Z,21.90
2018-12-31T01:45:10.234Z,24.50
2018-12-31T01:47:42.426Z,16.77
2018-12-31T01:50:14.867Z,20.67
2018-12-31T01:52:47.189Z,25.10
2018-12-31T01:55:19.424Z,19.20
2018-12-31T01:57:51.739Z,18.63
2018-12-31T02:00:23.988Z,17.60
2018-12-31T02:02:56.383Z,20.90
2018-12-31T02:05:28.756Z,21.93
2018-12-31T02:08:00.956Z,15.67
2018-12-31T02:10:33.176Z,13.17
2018-12-31T02:13:05.486Z,20.03
2018-12-31T02:15:37.721Z,20.77
2018-12-31T02:18:09.877Z,20.87
2018-12-31T02:20:42.202Z,17.30
2018-12-31T02:23:14.358Z,18.30
2018-12-31T02:25:46.651Z,15.30
2018-12-31T02:28:19.052Z,19.83
2018-12-31T02:30:51.390Z,12.30
2018-12-31T02:33:23.648Z,14.57
2018-12-31T02:35:56.006Z,18.47
2018-12-31T02:38:28.185Z,16.73
2018-12-31T02:41:00.469Z,15.33
2018-12-31T02:43:32.624Z,15.40
2018-12-31T02:46:04.942Z,13.37
2018-12-31T02:48:37.312Z,13.23
2018-12-31T02:51:09.516Z,10.53
2018-12-31T02:53:41.675Z,9.00
2018-12-31T02:56:13.888Z,12.67
2018-12-31T02:58:46.097Z,18.67
2018-12-31T03:01:18.308Z,12.40
2018-12-31T03:03:50.475Z,16.87
2018-12-31T03:06:22.702Z,11.77
2018-12-31T03:08:54.865Z,15.53
2018-12-31T03:11:27.173Z,17.00
2018-12-31T03:13:59.351Z,18.43
2018-12-31T03:16:31.565Z,16.70
2018-12-31T03:19:03.958Z,16.40
2018-12-31T03:21:36.199Z,14.73
2018-12-31T03:24:08.358Z,16.60
2018-12-31T03:26:40.566Z,15.83
2018-12-31T03:29:12.814Z,18.90
2018-12-31T03:31:45.016Z,17.30
2018-12-31T03:34:17.414Z,19.33
2018-12-31T03:36:49.847Z,15.63
2018-12-31T03:39:22.008Z,16.03
2018-12-31T03:41:54.318Z,15.50
2018-12-31T03:44:27.231Z,16.23
2018-12-31T03:46:59.469Z,17.80
2018-12-31T03:49:31.823Z,16.47
2018-12-31T03:52:04.233Z,19.00
2018-12-31T03:54:36.407Z,16.00
2018-12-31T03:57:08.631Z,17.17
2018-12-31T03:59:40.945Z,17.20
2018-12-31T04:02:13.281Z,20.00
2018-12-31T04:04:45.807Z,18.27
2018-12-31T04:07:18.120Z,16.00
2018-12-31T04:09:50.405Z,21.77
2018-12-31T04:12:22.653Z,16.20
2018-12-31T04:14:54.826Z,17.37
2018-12-31T04:17:27.160Z,20.23
2018-12-31T04:19:59.479Z,22.03
2018-12-31T04:22:31.709Z,18.17
2018-12-31T04:25:04.177Z,16.00
2018-12-31T04:27:36.388Z,16.73
2018-12-31T04:30:08.650Z,14.73
2018-12-31T04:32:40.858Z,17.20
2018-12-31T04:35:13.188Z,20.40
2018-12-31T04:37:45.492Z,16.67
2018-12-31T04:40:17.788Z,20.63
2018-12-31T04:42:50.026Z,13.40
2018-12-31T04:45:22.194Z,16.90
2018-12-31T04:47:54.406Z,19.63
2018-12-31T04:50:26.587Z,15.87
2018-12-31T04:52:58.794Z,15.23
2018-12-31T04:55:30.965Z,17.33
2018-12-31T04:58:03.501Z,18.30
2018-12-31T05:00:35.735Z,20.13
2018-12-31T05:03:07.942Z,14.47
2018-12-31T05:05:40.109Z,16.27
2018-12-31T05:08:12.316Z,17.40
2018-12-31T05:10:44.487Z,12.43
2018-12-31T05:13:16.693Z,18.87
2018-12-31T05:15:48.989Z,22.10
2018-12-31T05:18:21.222Z,19.00
2018-12-31T05:20:53.495Z,13.87
2018-12-31T05:23:25.699Z,18.90
2018-12-31T05:25:57.978Z,14.67
2018-12-31T05:28:30.301Z,16.30
2018-12-31T05:31:02.565Z,19.47
2018-12-31T05:33:35.001Z,21.47
2018-12-31T05:36:07.327Z,20.03
2018-12-31T05:38:39.567Z,18.77
2018-12-31T05:41:11.833Z,20.63
2018-12-31T05:43:44.044Z,18.83
2018-12-31T05:46:16.439Z,20.43
2018-12-31T05:48:48.677Z,17.83
2018-12-31T05:51:20.857Z,15.53
2018-12-31T05:53:53.069Z,18.30
2018-12-31T05:56:25.362Z,20.23
2018-12-31T05:58:57.602Z,18.97
2018-12-31T06:01:29.808Z,14.13
2018-12-31T06:04:02.146Z,21.70
2018-12-31T06:06:34.332Z,16.90
2018-12-31T06:09:08.840Z,15.83
2018-12-31T06:11:41.007Z,18.07
2018-12-31T06:14:13.207Z,17.17
2018-12-31T06:16:45.416Z,17.40
2018-12-31T06:19:17.621Z,19.63
2018-12-31T06:21:50.024Z,17.73
2018-12-31T06:24:22.344Z,16.27
2018-12-31T06:26:54.552Z,19.57
2018-12-31T06:29:26.767Z,17.40
2018-12-31T06:31:58.977Z,16.40
2018-12-31T06:34:31.423Z,20.17
2018-12-31T06:37:03.661Z,17.77
2018-12-31T06:39:35.877Z,14.37
2018-12-31T06:42:08.086Z,15.30
2018-12-31T06:44:40.377Z,15.50
2018-12-31T06:47:12.691Z,20.07
2018-12-31T06:49:44.912Z,17.80
2018-12-31T06:52:17.118Z,16.53
2018-12-31T06:54:49.564Z,25.40
2018-12-31T06:57:21.936Z,27.50
2018-12-31T06:59:54.494Z,19.30
2018-12-31T07:02:26.928Z,20.70
2018-12-31T07:04:59.299Z,21.10
2018-12-31T07:07:31.671Z,22.07
2018-12-31T07:10:04.135Z,21.30
2018-12-31T07:12:36.503Z,19.63
2018-12-31T07:15:09.354Z,17.83
2018-12-31T07:17:41.579Z,18.77
2018-12-31T07:20:13.895Z,14.53
2018-12-31T07:22:46.103Z,19.30
2018-12-31T07:25:18.318Z,14.63
2018-12-31T07:27:50.657Z,24.20
2018-12-31T07:30:23.129Z,23.60
2018-12-31T07:32:55.499Z,17.97
2018-12-31T07:35:27.964Z,16.30
2018-12-31T07:38:00.298Z,16.23
2018-12-31T07:40:32.520Z,12.33
2018-12-31T07:43:04.823Z,13.07
2018-12-31T07:45:37.033Z,12.87
2018-12-31T07:48:09.344Z,11.23
2018-12-31T07:50:41.559Z,12.40
2018-12-31T07:53:13.769Z,13.20
2018-12-31T07:55:45.991Z,12.50
2018-12-31T07:58:18.200Z,9.90
2018-12-31T08:00:50.445Z,8.87
2018-12-31T08:03:22.653Z,8.87
2018-12-31T08:05:54.962Z,9.80
2018-12-31T08:08:27.167Z,7.60
2018-12-31T08:10:59.385Z,7.43
2018-12-31T08:13:31.693Z,6.40
2018-12-31T08:16:04.010Z,6.93
2018-12-31T08:18:36.219Z,7.37
2018-12-31T08:21:08.524Z,7.57
2018-12-31T08:23:40.729Z,7.50
2018-12-31T08:26:12.934Z,8.40
2018-12-31T08:28:45.138Z,8.03
2018-12-31T08:31:17.339Z,7.73
2018-12-31T08:33:49.656Z,7.63
2018-12-31T08:36:21.909Z,6.53
2018-12-31T08:38:54.253Z,7.50
2018-12-31T08:41:26.466Z,8.27
2018-12-31T08:43:58.775Z,10.30
2018-12-31T08:46:30.994Z,11.40
2018-12-31T08:49:03.292Z,10.13
2018-12-31T08:51:35.505Z,9.07
2018-12-31T08:54:07.703Z,9.40
2018-12-31T08:56:40.230Z,8.87
2018-12-31T08:59:12.429Z,14.63
2018-12-31T09:01:44.825Z,16.07
2018-12-31T09:04:17.189Z,26.13
2018-12-31T09:06:49.664Z,13.93
2018-12-31T09:09:21.901Z,13.43
2018-12-31T09:11:54.119Z,13.57
2018-12-31T09:14:26.399Z,11.00
2018-12-31T09:16:58.711Z,9.33
2018-12-31T09:19:30.919Z,10.00
2018-12-31T09:22:03.136Z,13.20
2018-12-31T09:24:35.348Z,9.73
2018-12-31T09:27:07.560Z,7.63
2018-12-31T09:29:39.901Z,13.70
2018-12-31T09:32:12.144Z,9.77
2018-12-31T09:34:44.444Z,6.57
2018-12-31T09:37:16.656Z,9.07
2018-12-31T09:39:48.865Z,6.03
2018-12-31T09:42:21.073Z,6.83
2018-12-31T09:44:53.276Z,5.80
2018-12-31T09:47:25.486Z,5.50
2018-12-31T09:49:57.687Z,6.13
2018-12-31T09:52:29.905Z,10.17
2018-12-31T09:55:02.208Z,6.50
2018-12-31T09:57:34.563Z,5.00
2018-12-31T10:00:08.048Z,6.30
2018-12-31T10:02:40.311Z,10.30
2018-12-31T10:05:12.614Z,7.50
2018-12-31T10:07:44.823Z,8.77
2018-12-31T10:10:17.028Z,8.20
2018-12-31T10:12:49.253Z,6.27
2018-12-31T10:15:21.467Z,10.30
2018-12-31T10:17:53.680Z,7.43
2018-12-31T10:20:25.887Z,5.93
2018-12-31T10:22:58.100Z,7.57
2018-12-31T10:25:30.409Z,6.87
2018-12-31T10:28:02.615Z,8.47
2018-12-31T10:30:34.828Z,6.33
2018-12-31T10:33:07.149Z,5.10
2018-12-31T10:35:39.459Z,5.40
2018-12-31T10:38:11.670Z,8.27
2018-12-31T10:40:43.871Z,6.07
2018-12-31T10:43:16.077Z,6.90
2018-12-31T10:45:48.284Z,6.77
2018-12-31T10:48:20.493Z,4.87
2018-12-31T10:50:52.815Z,6.40
2018-12-31T10:53:26.024Z,6.67
2018-12-31T10:55:58.329Z,7.20
2018-12-31T10:58:30.537Z,5.57
2018-12-31T11:01:02.947Z,4.60
2018-12-31T11:03:35.166Z,9.10
2018-12-31T11:06:07.376Z,6.17
2018-12-31T11:08:39.592Z,5.47
2018-12-31T11:11:11.833Z,3.10
2018-12-31T11:13:44.045Z,4.70
2018-12-31T11:16:16.244Z,5.80
2018-12-31T11:18:48.549Z,3.60
2018-12-31T11:21:20.755Z,14.00
2018-12-31T11:23:52.968Z,12.63
2018-12-31T11:26:25.179Z,9.67
2018-12-31T11:28:57.369Z,8.90
2018-12-31T11:31:30.393Z,4.70
2018-12-31T11:34:02.970Z,4.63
2018-12-31T11:36:35.175Z,6.57
2018-12-31T11:39:09.371Z,6.60
2018-12-31T11:41:41.674Z,7.40
2018-12-31T11:44:13.888Z,5.40
2018-12-31T11:46:46.196Z,4.63
2018-12-31T11:49:18.416Z,6.00
2018-12-31T11:51:50.641Z,10.83
2018-12-31T11:54:22.951Z,7.53
2018-12-31T11:56:55.157Z,4.30
2018-12-31T11:59:27.771Z,4.07
2018-12-31T12:02:00.199Z,5.00
2018-12-31T12:04:32.512Z,3.27
2018-12-31T12:07:04.789Z,6.03
2018-12-31T12:09:36.997Z,3.77
2018-12-31T12:12:09.198Z,3.67
2018-12-31T12:14:41.787Z,4.23
2018-12-31T12:17:14.941Z,3.27
2018-12-31T12:19:47.152Z,4.23
2018-12-31T12:22:19.457Z,3.93
2018-12-31T12:24:51.939Z,4.23
2018-12-31T12:27:24.147Z,4.33
2018-12-31T12:29:56.436Z,3.10
2018-12-31T12:32:28.647Z,10.17
2018-12-31T12:35:01.126Z,5.80
2018-12-31T12:37:33.353Z,5.83
2018-12-31T12:40:05.819Z,11.60
2018-12-31T12:42:38.031Z,10.87
2018-12-31T12:45:10.529Z,7.57
2018-12-31T12:47:42.741Z,8.93
2018-12-31T12:50:14.942Z,7.50
2018-12-31T12:52:47.253Z,7.53
2018-12-31T12:55:19.834Z,7.43
2018-12-31T12:57:52.050Z,7.60
2018-12-31T13:00:24.458Z,8.70
2018-12-31T13:02:56.719Z,10.90
2018-12-31T13:05:29.114Z,10.13
2018-12-31T13:08:01.768Z,11.87
2018-12-31T13:10:34.060Z,10.40
2018-12-31T13:13:06.260Z,8.00
2018-12-31T13:15:38.984Z,8.77
2018-12-31T13:18:11.327Z,15.93
2018-12-31T13:20:43.565Z,9.50
2018-12-31T13:23:15.849Z,7.47
2018-12-31T13:25:48.187Z,25.70
2018-12-31T13:28:20.434Z,14.57
2018-12-31T13:30:52.779Z,18.23
2018-12-31T13:33:25.122Z,12.20
2018-12-31T13:35:57.340Z,11.60
2018-12-31T13:38:29.727Z,10.77
2018-12-31T13:41:02.007Z,9.47
2018-12-31T13:43:34.219Z,12.57
2018-12-31T13:46:06.702Z,9.50
2018-12-31T13:48:38.916Z,9.30
2018-12-31T13:51:11.133Z,5.83
2018-12-31T13:53:43.340Z,6.00
2018-12-31T13:56:15.642Z,6.23
2018-12-31T13:58:47.848Z,8.87
2018-12-31T14:01:20.158Z,4.10
2018-12-31T14:03:52.404Z,3.73
2018-12-31T14:06:24.786Z,6.80
2018-12-31T14:08:56.996Z,5.07
2018-12-31T14:11:29.297Z,3.80
2018-12-31T14:14:01.514Z,5.93
2018-12-31T14:16:33.832Z,4.50
2018-12-31T14:19:06.080Z,4.37
2018-12-31T14:21:38.290Z,7.37
2018-12-31T14:24:10.444Z,8.90
2018-12-31T14:26:42.745Z,11.07
2018-12-31T14:29:14.995Z,7.27
2018-12-31T14:31:47.401Z,7.57
2018-12-31T14:34:19.763Z,5.57
2018-12-31T14:36:51.975Z,2.60
2018-12-31T14:39:24.125Z,4.27
2018-12-31T14:41:56.334Z,5.00
2018-12-31T14:44:28.492Z,5.37
2018-12-31T14:47:00.693Z,6.33
2018-12-31T14:49:32.960Z,4.43
2018-12-31T14:52:05.476Z,5.97
2018-12-31T14:54:37.643Z,5.23
2018-12-31T14:57:09.854Z,4.17
2018-12-31T14:59:42.112Z,6.37
2018-12-31T15:02:14.427Z,6.73
2018-12-31T15:04:46.632Z,7.40
2018-12-31T15:07:19.024Z,6.10
2018-12-31T15:09:51.182Z,5.80
2018-12-31T15:12:23.473Z,5.07
2018-12-31T15:14:55.739Z,6.13
2018-12-31T15:17:28.031Z,7.00
2018-12-31T15:20:00.198Z,8.53
2018-12-31T15:22:32.489Z,7.87
2018-12-31T15:25:04.926Z,7.00
2018-12-31T15:27:37.412Z,4.93
2018-12-31T15:30:10.610Z,9.50
2018-12-31T15:32:43.038Z,9.83
2018-12-31T15:35:15.287Z,9.00
2018-12-31T15:37:47.872Z,8.97
2018-12-31T15:40:20.239Z,6.13
2018-12-31T15:42:52.447Z,12.57
2018-12-31T15:45:24.835Z,16.33
2018-12-31T15:47:57.320Z,13.17
2018-12-31T15:50:29.487Z,12.03
2018-12-31T15:53:01.699Z,12.93
2018-12-31T15:55:33.851Z,8.27
2018-12-31T15:58:06.595Z,7.07
2018-12-31T16:00:39.100Z,9.43
2018-12-31T16:03:11.546Z,6.77
2018-12-31T16:05:43.982Z,18.50
2018-12-31T16:08:16.707Z,90.77
2018-12-31T16:10:49.040Z,69.83
2018-12-31T16:13:21.421Z,30.57
2018-12-31T16:15:53.844Z,36.00
2018-12-31T16:18:26.712Z,29.00
2018-12-31T16:20:59.134Z,17.07
2018-12-31T16:23:31.476Z,12.40
2018-12-31T16:26:03.682Z,10.30
2018-12-31T16:28:36.264Z,9.20
2018-12-31T16:31:08.523Z,6.10
2018-12-31T16:33:40.723Z,8.23
2018-12-31T16:36:12.897Z,8.67
2018-12-31T16:38:45.479Z,12.47
2018-12-31T16:41:17.647Z,12.70
2018-12-31T16:43:49.897Z,13.43
2018-12-31T16:46:22.139Z,10.23
2018-12-31T16:48:54.859Z,17.73
2018-12-31T16:51:27.280Z,16.37
2018-12-31T16:53:59.742Z,14.30
2018-12-31T16:56:32.062Z,19.43
2018-12-31T16:59:06.399Z,17.00
2018-12-31T17:01:38.584Z,12.60
2018-12-31T17:04:11.046Z,14.30
2018-12-31T17:06:43.413Z,16.17
2018-12-31T17:09:16.079Z,22.17
2018-12-31T17:11:48.403Z,20.70
2018-12-31T17:14:20.771Z,22.43
2018-12-31T17:16:53.186Z,25.47
2018-12-31T17:19:25.556Z,23.50
2018-12-31T17:21:57.875Z,14.80
2018-12-31T17:24:30.240Z,17.57
2018-12-31T17:27:02.561Z,15.80
2018-12-31T17:29:34.922Z,16.00
2018-12-31T17:32:07.246Z,18.27
2018-12-31T17:34:39.607Z,18.63
2018-12-31T17:37:11.929Z,19.27
2018-12-31T17:39:44.301Z,16.23
2018-12-31T17:42:16.618Z,18.87
2018-12-31T17:44:48.982Z,38.73
2018-12-31T17:47:21.319Z,50.10
2018-12-31T17:49:53.705Z,27.03
2018-12-31T17:52:26.131Z,15.93
2018-12-31T17:54:58.495Z,15.37
2018-12-31T17:57:30.810Z,16.87
2018-12-31T18:00:03.376Z,22.33
2018-12-31T18:02:35.704Z,17.87
2018-12-31T18:05:08.265Z,11.73
2018-12-31T18:07:40.705Z,16.20
2018-12-31T18:10:13.139Z,14.70
2018-12-31T18:12:45.330Z,12.00
2018-12-31T18:15:17.674Z,14.33
2018-12-31T18:17:49.974Z,12.87
2018-12-31T18:20:22.410Z,15.20
2018-12-31T18:22:54.612Z,14.83
2018-12-31T18:25:26.826Z,12.67
2018-12-31T18:27:59.123Z,14.10
2018-12-31T18:30:31.483Z,14.43
2018-12-31T18:33:03.817Z,16.83
2018-12-31T18:35:36.191Z,16.03
2018-12-31T18:38:08.640Z,20.03
2018-12-31T18:40:41.012Z,15.97
2018-12-31T18:43:17.286Z,15.00
2018-12-31T18:45:49.772Z,18.53
2018-12-31T18:48:22.198Z,18.90
2018-12-31T18:50:54.441Z,13.03
2018-12-31T18:53:27.762Z,13.77
2018-12-31T18:55:59.983Z,14.67
2018-12-31T18:58:32.386Z,15.70
2018-12-31T19:01:04.627Z,14.27
2018-12-31T19:03:36.803Z,13.27
2018-12-31T19:06:09.022Z,12.00
2018-12-31T19:08:42.024Z,16.97
2018-12-31T19:11:14.542Z,18.87
2018-12-31T19:13:47.106Z,16.30
2018-12-31T19:16:19.487Z,13.10
2018-12-31T19:18:52.027Z,21.87
2018-12-31T19:21:24.640Z,37.20
2018-12-31T19:23:57.406Z,41.17
2018-12-31T19:26:29.925Z,28.30
2018-12-31T19:29:02.395Z,23.07
2018-12-31T19:31:34.904Z,31.83
2018-12-31T19:34:07.665Z,19.73
2018-12-31T19:36:40.172Z,22.87
2018-12-31T19:39:12.635Z,38.10
2018-12-31T19:41:45.247Z,43.03
2018-12-31T19:44:18.017Z,32.00
2018-12-31T19:46:50.533Z,23.20
2018-12-31T19:49:22.994Z,18.50
2018-12-31T19:51:55.508Z,25.07
2018-12-31T19:54:28.181Z,17.23
2018-12-31T19:57:00.684Z,21.70
2018-12-31T19:59:32.961Z,16.17
2018-12-31T20:02:05.534Z,27.60
2018-12-31T20:04:38.050Z,26.60
2018-12-31T20:07:10.420Z,28.20
2018-12-31T20:09:42.732Z,29.27
2018-12-31T20:12:15.206Z,39.37
2018-12-31T20:14:47.828Z,49.07
2018-12-31T20:17:20.194Z,35.10
2018-12-31T20:19:52.520Z,31.23
2018-12-31T20:22:24.889Z,27.10
2018-12-31T20:24:57.218Z,29.73
2018-12-31T20:27:29.674Z,23.37
2018-12-31T20:30:02.004Z,17.57
2018-12-31T20:32:34.377Z,20.27
2018-12-31T20:35:06.922Z,21.87
2018-12-31T20:37:39.330Z,28.97
2018-12-31T20:40:11.798Z,24.97
2018-12-31T20:42:44.219Z,20.10
2018-12-31T20:45:16.590Z,23.73
2018-12-31T20:47:49.192Z,17.03
2018-12-31T20:50:21.595Z,22.87
2018-12-31T20:52:54.120Z,15.03
2018-12-31T20:55:26.912Z,28.83
2018-12-31T20:57:59.501Z,25.63
2018-12-31T21:00:32.066Z,16.33
2018-12-31T21:03:04.679Z,20.73
2018-12-31T21:05:37.157Z,22.27
2018-12-31T21:08:09.670Z,23.63
2018-12-31T21:10:42.138Z,22.60
2018-12-31T21:13:14.499Z,27.87
2018-12-31T21:15:46.916Z,29.10
2018-12-31T21:18:19.374Z,21.90
2018-12-31T21:20:51.808Z,30.27
2018-12-31T21:23:24.362Z,21.43
2018-12-31T21:25:58.546Z,22.37
2018-12-31T21:28:30.768Z,23.20
2018-12-31T21:31:03.202Z,20.63
2018-12-31T21:33:35.575Z,18.53
2018-12-31T21:36:07.891Z,18.77
2018-12-31T21:38:40.135Z,15.70
2018-12-31T21:41:12.811Z,25.17
2018-12-31T21:43:45.174Z,19.70
2018-12-31T21:46:17.495Z,22.63
2018-12-31T21:48:49.738Z,15.63
2018-12-31T21:51:22.417Z,24.80
2018-12-31T21:53:54.666Z,16.17
2018-12-31T21:56:26.962Z,17.37
2018-12-31T21:58:59.202Z,16.37
2018-12-31T22:01:31.503Z,17.03
2018-12-31T22:04:03.974Z,21.20
2018-12-31T22:06:36.167Z,18.53
2018-12-31T22:09:09.929Z,20.97
2018-12-31T22:11:42.251Z,19.93
2018-12-31T22:14:14.603Z,15.43
2018-12-31T22:16:46.910Z,19.37
2018-12-31T22:19:19.257Z,27.50
2018-12-31T22:21:51.671Z,20.27
2018-12-31T22:24:24.033Z,22.40
2018-12-31T22:26:56.447Z,25.43
2018-12-31T22:29:28.676Z,16.97
2018-12-31T22:32:00.965Z,23.60
2018-12-31T22:34:33.273Z,16.70
2018-12-31T22:37:05.576Z,22.37
2018-12-31T22:39:37.932Z,18.97
2018-12-31T22:42:10.125Z,18.00
2018-12-31T22:44:42.466Z,29.17
2018-12-31T22:47:14.651Z,22.17
2018-12-31T22:49:46.988Z,25.20
2018-12-31T22:52:19.310Z,26.40
2018-12-31T22:54:51.674Z,21.57
2018-12-31T22:57:23.866Z,18.23
2018-12-31T22:59:56.212Z,27.47
2018-12-31T23:02:28.536Z,21.07
2018-12-31T23:05:00.905Z,24.50
2018-12-31T23:07:33.326Z,136.40
2018-12-31T23:10:06.382Z,112.43
2018-12-31T23:12:38.708Z,78.37
2018-12-31T23:15:16.699Z,76.33
2018-12-31T23:17:49.137Z,56.87
2018-12-31T23:20:21.883Z,46.10
2018-12-31T23:22:54.578Z,111.47
2018-12-31T23:25:27.096Z,252.03
2018-12-31T23:27:59.435Z,281.90
2018-12-31T23:30:34.601Z,98.37
2018-12-31T23:33:07.071Z,70.67
2018-12-31T23:35:39.436Z,47.27
2018-12-31T23:38:11.795Z,42.87
2018-12-31T23:40:44.164Z,67.33
2018-12-31T23:43:16.566Z,128.43
2018-12-31T23:45:50.731Z,78.17
2018-12-31T23:48:23.204Z,85.47
2018-12-31T23:50:55.580Z,64.70
2018-12-31T23:53:28.054Z,80.43
2018-12-31T23:56:00.430Z,65.50
2018-12-31T23:58:32.803Z,65.70
